sensor_id;sensor_type;location;lat;lon;timestamp;P1;durP1;ratioP1;P2;durP2;ratioP2
3997;SDS011;61314;53.444;9.902;2023-08-07T00:02:06;8.10;;;4.50;;
3997;SDS011;61314;53.444;9.902;2023-08-07T00:04:33;4.13;;;3.87;;
3997;SDS011;61314;53.444;9.902;2023-08-07T00:07:00;5.07;;;4.07;;
3997;SDS011;61314;53.444;9.902;2023-08-07T00:09:27;5.67;;;4.23;;
3997;SDS011;61314;53.444;9.902;2023-08-07T00:11:54;4.43;;;3.53;;
3997;SDS011;61314;53.444;9.902;2023-08-07T00:14:22;4.87;;;3.93;;
3997;SDS011;61314;53.444;9.902;2023-08-07T00:16:49;4.50;;;3.83;;
3997;SDS011;61314;53.444;9.902;2023-08-07T00:19:16;4.50;;;3.60;;
3997;SDS011;61314;53.444;9.902;2023-08-07T00:21:43;5.87;;;3.30;;
3997;SDS011;61314;53.444;9.902;2023-08-07T00:24:10;5.20;;;3.20;;
3997;SDS011;61314;53.444;9.902;2023-08-07T00:26:37;3.77;;;3.50;;
3997;SDS011;61314;53.444;9.902;2023-08-07T00:29:04;6.40;;;3.40;;
3997;SDS011;61314;53.444;9.902;2023-08-07T00:31:31;3.70;;;3.17;;
3997;SDS011;61314;53.444;9.902;2023-08-07T00:33:58;4.13;;;3.83;;
3997;SDS011;61314;53.444;9.902;2023-08-07T00:36:26;4.60;;;3.67;;
3997;SDS011;61314;53.444;9.902;2023-08-07T00:39:01;5.50;;;3.00;;
3997;SDS011;61314;53.444;9.902;2023-08-07T00:41:29;6.40;;;3.20;;
3997;SDS011;61314;53.444;9.902;2023-08-07T00:43:56;5.53;;;3.20;;
3997;SDS011;61314;53.444;9.902;2023-08-07T00:46:23;4.37;;;2.80;;
3997;SDS011;61314;53.444;9.902;2023-08-07T00:48:51;6.33;;;3.40;;
3997;SDS011;61314;53.444;9.902;2023-08-07T00:51:18;2.80;;;2.60;;
3997;SDS011;61314;53.444;9.902;2023-08-07T00:53:45;3.50;;;2.80;;
3997;SDS011;61314;53.444;9.902;2023-08-07T00:56:13;2.63;;;2.43;;
3997;SDS011;61314;53.444;9.902;2023-08-07T00:58:41;2.80;;;2.30;;
3997;SDS011;61314;53.444;9.902;2023-08-07T01:01:08;7.70;;;3.30;;
3997;SDS011;61314;53.444;9.902;2023-08-07T01:03:35;3.27;;;3.07;;
3997;SDS011;61314;53.444;9.902;2023-08-07T01:06:02;5.90;;;2.83;;
3997;SDS011;61314;53.444;9.902;2023-08-07T01:08:29;6.80;;;3.20;;
3997;SDS011;61314;53.444;9.902;2023-08-07T01:11:13;4.13;;;2.60;;
3997;SDS011;61314;53.444;9.902;2023-08-07T01:16:36;6.20;;;3.20;;
3997;SDS011;61314;53.444;9.902;2023-08-07T01:19:04;3.13;;;2.87;;
3997;SDS011;61314;53.444;9.902;2023-08-07T01:21:35;6.10;;;2.73;;
3997;SDS011;61314;53.444;9.902;2023-08-07T01:24:03;4.03;;;2.43;;
3997;SDS011;61314;53.444;9.902;2023-08-07T01:26:30;3.53;;;3.17;;
3997;SDS011;61314;53.444;9.902;2023-08-07T01:29:03;3.53;;;2.70;;
3997;SDS011;61314;53.444;9.902;2023-08-07T01:31:33;4.03;;;3.63;;
3997;SDS011;61314;53.444;9.902;2023-08-07T01:34:06;6.97;;;3.10;;
3997;SDS011;61314;53.444;9.902;2023-08-07T01:36:34;4.33;;;2.70;;
3997;SDS011;61314;53.444;9.902;2023-08-07T01:39:02;5.53;;;2.43;;
3997;SDS011;61314;53.444;9.902;2023-08-07T01:41:33;4.33;;;2.60;;
3997;SDS011;61314;53.444;9.902;2023-08-07T01:44:00;4.93;;;3.00;;
3997;SDS011;61314;53.444;9.902;2023-08-07T01:46:27;3.20;;;3.00;;
3997;SDS011;61314;53.444;9.902;2023-08-07T01:48:54;2.90;;;2.40;;
3997;SDS011;61314;53.444;9.902;2023-08-07T01:51:21;3.43;;;2.40;;
3997;SDS011;61314;53.444;9.902;2023-08-07T01:53:49;3.60;;;3.03;;
3997;SDS011;61314;53.444;9.902;2023-08-07T01:56:16;3.90;;;2.40;;
3997;SDS011;61314;53.444;9.902;2023-08-07T01:58:43;3.43;;;2.63;;
3997;SDS011;61314;53.444;9.902;2023-08-07T02:01:10;3.10;;;2.53;;
3997;SDS011;61314;53.444;9.902;2023-08-07T02:03:37;3.70;;;2.43;;
3997;SDS011;61314;53.444;9.902;2023-08-07T02:06:04;4.57;;;2.70;;
3997;SDS011;61314;53.444;9.902;2023-08-07T02:08:31;2.70;;;2.50;;
3997;SDS011;61314;53.444;9.902;2023-08-07T02:10:58;2.60;;;2.30;;
3997;SDS011;61314;53.444;9.902;2023-08-07T02:13:27;6.40;;;2.40;;
3997;SDS011;61314;53.444;9.902;2023-08-07T02:15:54;4.40;;;2.80;;
3997;SDS011;61314;53.444;9.902;2023-08-07T02:18:21;2.53;;;2.43;;
3997;SDS011;61314;53.444;9.902;2023-08-07T02:20:48;3.20;;;2.83;;
3997;SDS011;61314;53.444;9.902;2023-08-07T02:23:17;2.63;;;2.53;;
3997;SDS011;61314;53.444;9.902;2023-08-07T02:25:44;3.63;;;2.53;;
3997;SDS011;61314;53.444;9.902;2023-08-07T02:28:11;3.87;;;2.30;;
3997;SDS011;61314;53.444;9.902;2023-08-07T02:30:39;3.37;;;2.67;;
3997;SDS011;61314;53.444;9.902;2023-08-07T02:33:06;4.93;;;2.40;;
3997;SDS011;61314;53.444;9.902;2023-08-07T02:35:33;2.73;;;2.53;;
3997;SDS011;61314;53.444;9.902;2023-08-07T02:38:00;2.50;;;2.10;;
3997;SDS011;61314;53.444;9.902;2023-08-07T02:40:27;8.13;;;2.67;;
3997;SDS011;61314;53.444;9.902;2023-08-07T02:42:54;5.73;;;1.87;;
3997;SDS011;61314;53.444;9.902;2023-08-07T02:45:21;9.30;;;2.50;;
3997;SDS011;61314;53.444;9.902;2023-08-07T02:47:48;4.77;;;2.03;;
3997;SDS011;61314;53.444;9.902;2023-08-07T02:50:15;3.97;;;1.93;;
3997;SDS011;61314;53.444;9.902;2023-08-07T02:52:42;2.70;;;2.27;;
3997;SDS011;61314;53.444;9.902;2023-08-07T02:55:11;8.67;;;2.30;;
3997;SDS011;61314;53.444;9.902;2023-08-07T02:57:38;4.47;;;2.27;;
3997;SDS011;61314;53.444;9.902;2023-08-07T03:00:05;3.73;;;2.10;;
3997;SDS011;61314;53.444;9.902;2023-08-07T03:02:33;2.27;;;1.70;;
3997;SDS011;61314;53.444;9.902;2023-08-07T03:05:00;2.37;;;2.27;;
3997;SDS011;61314;53.444;9.902;2023-08-07T03:07:27;3.67;;;2.13;;
3997;SDS011;61314;53.444;9.902;2023-08-07T03:09:54;5.03;;;2.50;;
3997;SDS011;61314;53.444;9.902;2023-08-07T03:12:21;3.17;;;2.40;;
3997;SDS011;61314;53.444;9.902;2023-08-07T03:14:48;3.10;;;2.10;;
3997;SDS011;61314;53.444;9.902;2023-08-07T03:17:15;5.30;;;2.37;;
3997;SDS011;61314;53.444;9.902;2023-08-07T03:19:42;3.93;;;2.27;;
3997;SDS011;61314;53.444;9.902;2023-08-07T03:22:10;3.00;;;2.10;;
3997;SDS011;61314;53.444;9.902;2023-08-07T03:24:37;2.17;;;1.97;;
3997;SDS011;61314;53.444;9.902;2023-08-07T03:27:04;3.63;;;2.07;;
3997;SDS011;61314;53.444;9.902;2023-08-07T03:29:32;5.40;;;2.07;;
3997;SDS011;61314;53.444;9.902;2023-08-07T03:31:59;7.47;;;2.17;;
3997;SDS011;61314;53.444;9.902;2023-08-07T03:34:26;2.30;;;2.10;;
3997;SDS011;61314;53.444;9.902;2023-08-07T03:36:53;9.23;;;2.40;;
3997;SDS011;61314;53.444;9.902;2023-08-07T03:39:20;2.73;;;2.30;;
3997;SDS011;61314;53.444;9.902;2023-08-07T03:41:47;3.73;;;2.17;;
3997;SDS011;61314;53.444;9.902;2023-08-07T03:44:14;3.70;;;2.20;;
3997;SDS011;61314;53.444;9.902;2023-08-07T03:46:41;3.97;;;2.13;;
3997;SDS011;61314;53.444;9.902;2023-08-07T03:49:09;3.73;;;2.87;;
3997;SDS011;61314;53.444;9.902;2023-08-07T03:51:36;4.60;;;2.13;;
3997;SDS011;61314;53.444;9.902;2023-08-07T03:54:03;3.63;;;2.33;;
3997;SDS011;61314;53.444;9.902;2023-08-07T03:56:30;9.67;;;3.10;;
3997;SDS011;61314;53.444;9.902;2023-08-07T03:59:02;2.50;;;2.30;;
3997;SDS011;61314;53.444;9.902;2023-08-07T04:01:29;7.57;;;2.30;;
3997;SDS011;61314;53.444;9.902;2023-08-07T04:03:56;2.37;;;2.17;;
3997;SDS011;61314;53.444;9.902;2023-08-07T04:06:24;2.17;;;2.07;;
3997;SDS011;61314;53.444;9.902;2023-08-07T04:08:53;5.23;;;2.80;;
3997;SDS011;61314;53.444;9.902;2023-08-07T04:11:20;2.77;;;2.57;;
3997;SDS011;61314;53.444;9.902;2023-08-07T04:13:47;4.50;;;2.70;;
3997;SDS011;61314;53.444;9.902;2023-08-07T04:16:14;5.90;;;2.37;;
3997;SDS011;61314;53.444;9.902;2023-08-07T04:18:41;2.30;;;2.10;;
3997;SDS011;61314;53.444;9.902;2023-08-07T04:21:08;5.47;;;2.93;;
3997;SDS011;61314;53.444;9.902;2023-08-07T04:23:35;5.47;;;2.63;;
3997;SDS011;61314;53.444;9.902;2023-08-07T04:26:04;6.60;;;2.90;;
3997;SDS011;61314;53.444;9.902;2023-08-07T04:28:31;5.63;;;2.80;;
3997;SDS011;61314;53.444;9.902;2023-08-07T04:30:58;2.70;;;2.50;;
3997;SDS011;61314;53.444;9.902;2023-08-07T04:33:25;9.23;;;3.37;;
3997;SDS011;61314;53.444;9.902;2023-08-07T04:35:52;4.43;;;2.70;;
3997;SDS011;61314;53.444;9.902;2023-08-07T04:38:19;3.90;;;2.83;;
3997;SDS011;61314;53.444;9.902;2023-08-07T04:40:47;4.20;;;2.80;;
3997;SDS011;61314;53.444;9.902;2023-08-07T04:43:14;6.33;;;3.27;;
3997;SDS011;61314;53.444;9.902;2023-08-07T04:45:42;4.97;;;2.50;;
3997;SDS011;61314;53.444;9.902;2023-08-07T04:48:11;4.83;;;3.00;;
3997;SDS011;61314;53.444;9.902;2023-08-07T04:50:38;6.53;;;2.63;;
3997;SDS011;61314;53.444;9.902;2023-08-07T04:53:05;3.73;;;3.10;;
3997;SDS011;61314;53.444;9.902;2023-08-07T04:55:32;3.90;;;2.77;;
3997;SDS011;61314;53.444;9.902;2023-08-07T04:57:59;4.07;;;2.80;;
3997;SDS011;61314;53.444;9.902;2023-08-07T05:00:27;6.77;;;3.17;;
3997;SDS011;61314;53.444;9.902;2023-08-07T05:02:54;3.70;;;2.70;;
3997;SDS011;61314;53.444;9.902;2023-08-07T05:05:22;6.23;;;2.57;;
3997;SDS011;61314;53.444;9.902;2023-08-07T05:07:49;4.80;;;3.13;;
3997;SDS011;61314;53.444;9.902;2023-08-07T05:10:16;6.40;;;3.30;;
3997;SDS011;61314;53.444;9.902;2023-08-07T05:12:44;4.23;;;2.57;;
3997;SDS011;61314;53.444;9.902;2023-08-07T05:15:11;3.33;;;2.93;;
3997;SDS011;61314;53.444;9.902;2023-08-07T05:17:38;5.77;;;3.13;;
3997;SDS011;61314;53.444;9.902;2023-08-07T05:20:05;6.23;;;3.33;;
3997;SDS011;61314;53.444;9.902;2023-08-07T05:22:32;5.00;;;3.27;;
3997;SDS011;61314;53.444;9.902;2023-08-07T05:24:59;4.57;;;2.70;;
3997;SDS011;61314;53.444;9.902;2023-08-07T05:27:27;6.07;;;3.13;;
3997;SDS011;61314;53.444;9.902;2023-08-07T05:29:54;4.20;;;3.60;;
3997;SDS011;61314;53.444;9.902;2023-08-07T05:32:21;3.33;;;2.53;;
3997;SDS011;61314;53.444;9.902;2023-08-07T05:34:49;5.13;;;3.00;;
3997;SDS011;61314;53.444;9.902;2023-08-07T05:37:16;3.20;;;2.73;;
3997;SDS011;61314;53.444;9.902;2023-08-07T05:39:44;6.77;;;3.00;;
3997;SDS011;61314;53.444;9.902;2023-08-07T05:42:11;9.03;;;3.80;;
3997;SDS011;61314;53.444;9.902;2023-08-07T05:44:38;6.60;;;3.10;;
3997;SDS011;61314;53.444;9.902;2023-08-07T05:47:05;11.00;;;4.23;;
3997;SDS011;61314;53.444;9.902;2023-08-07T05:49:33;6.07;;;2.90;;
3997;SDS011;61314;53.444;9.902;2023-08-07T05:52:00;17.77;;;3.47;;
3997;SDS011;61314;53.444;9.902;2023-08-07T05:54:27;10.13;;;3.97;;
3997;SDS011;61314;53.444;9.902;2023-08-07T05:56:54;3.93;;;3.30;;
3997;SDS011;61314;53.444;9.902;2023-08-07T05:59:21;4.93;;;2.70;;
3997;SDS011;61314;53.444;9.902;2023-08-07T06:01:48;8.13;;;3.70;;
3997;SDS011;61314;53.444;9.902;2023-08-07T06:04:15;7.53;;;3.40;;
3997;SDS011;61314;53.444;9.902;2023-08-07T06:06:42;14.20;;;3.87;;
3997;SDS011;61314;53.444;9.902;2023-08-07T06:09:09;9.23;;;3.47;;
3997;SDS011;61314;53.444;9.902;2023-08-07T06:11:37;8.83;;;3.10;;
3997;SDS011;61314;53.444;9.902;2023-08-07T06:14:04;7.87;;;3.07;;
3997;SDS011;61314;53.444;9.902;2023-08-07T06:16:31;9.20;;;3.37;;
3997;SDS011;61314;53.444;9.902;2023-08-07T06:18:58;8.53;;;3.53;;
3997;SDS011;61314;53.444;9.902;2023-08-07T06:21:25;8.17;;;3.60;;
3997;SDS011;61314;53.444;9.902;2023-08-07T06:23:54;15.30;;;3.73;;
3997;SDS011;61314;53.444;9.902;2023-08-07T06:26:22;8.97;;;3.47;;
3997;SDS011;61314;53.444;9.902;2023-08-07T06:28:49;13.90;;;3.43;;
3997;SDS011;61314;53.444;9.902;2023-08-07T06:31:16;8.50;;;3.50;;
3997;SDS011;61314;53.444;9.902;2023-08-07T06:33:43;4.70;;;3.53;;
3997;SDS011;61314;53.444;9.902;2023-08-07T06:36:10;6.63;;;3.00;;
3997;SDS011;61314;53.444;9.902;2023-08-07T06:38:37;8.03;;;3.53;;
3997;SDS011;61314;53.444;9.902;2023-08-07T06:41:05;9.20;;;3.77;;
3997;SDS011;61314;53.444;9.902;2023-08-07T06:43:32;7.47;;;3.40;;
3997;SDS011;61314;53.444;9.902;2023-08-07T06:45:59;9.87;;;4.20;;
3997;SDS011;61314;53.444;9.902;2023-08-07T06:48:26;11.13;;;3.50;;
3997;SDS011;61314;53.444;9.902;2023-08-07T06:50:53;6.67;;;3.37;;
3997;SDS011;61314;53.444;9.902;2023-08-07T06:53:21;7.13;;;3.10;;
3997;SDS011;61314;53.444;9.902;2023-08-07T06:55:48;10.83;;;3.47;;
3997;SDS011;61314;53.444;9.902;2023-08-07T06:58:15;11.60;;;3.50;;
3997;SDS011;61314;53.444;9.902;2023-08-07T07:00:42;15.47;;;4.10;;
3997;SDS011;61314;53.444;9.902;2023-08-07T07:03:09;17.47;;;4.37;;
3997;SDS011;61314;53.444;9.902;2023-08-07T07:05:36;10.20;;;3.50;;
3997;SDS011;61314;53.444;9.902;2023-08-07T07:08:03;16.73;;;4.20;;
3997;SDS011;61314;53.444;9.902;2023-08-07T07:10:31;9.23;;;3.77;;
3997;SDS011;61314;53.444;9.902;2023-08-07T07:12:58;11.53;;;3.90;;
3997;SDS011;61314;53.444;9.902;2023-08-07T07:15:25;12.93;;;4.50;;
3997;SDS011;61314;53.444;9.902;2023-08-07T07:17:52;18.27;;;4.50;;
3997;SDS011;61314;53.444;9.902;2023-08-07T07:20:20;17.03;;;4.00;;
3997;SDS011;61314;53.444;9.902;2023-08-07T07:22:47;11.80;;;4.27;;
3997;SDS011;61314;53.444;9.902;2023-08-07T07:25:14;17.13;;;4.87;;
3997;SDS011;61314;53.444;9.902;2023-08-07T07:27:41;18.23;;;5.13;;
3997;SDS011;61314;53.444;9.902;2023-08-07T07:30:08;10.20;;;4.37;;
3997;SDS011;61314;53.444;9.902;2023-08-07T07:32:35;20.77;;;3.87;;
3997;SDS011;61314;53.444;9.902;2023-08-07T07:35:05;18.77;;;5.10;;
3997;SDS011;61314;53.444;9.902;2023-08-07T07:37:32;14.30;;;4.40;;
3997;SDS011;61314;53.444;9.902;2023-08-07T07:39:59;20.10;;;4.90;;
3997;SDS011;61314;53.444;9.902;2023-08-07T07:42:26;15.93;;;5.90;;
3997;SDS011;61314;53.444;9.902;2023-08-07T07:44:53;10.43;;;4.77;;
3997;SDS011;61314;53.444;9.902;2023-08-07T07:47:21;11.30;;;4.00;;
3997;SDS011;61314;53.444;9.902;2023-08-07T07:49:48;19.30;;;5.20;;
3997;SDS011;61314;53.444;9.902;2023-08-07T07:52:15;14.70;;;5.30;;
3997;SDS011;61314;53.444;9.902;2023-08-07T07:54:42;15.50;;;4.97;;
3997;SDS011;61314;53.444;9.902;2023-08-07T07:57:09;20.57;;;5.70;;
3997;SDS011;61314;53.444;9.902;2023-08-07T07:59:36;21.37;;;5.77;;
3997;SDS011;61314;53.444;9.902;2023-08-07T08:02:04;20.03;;;5.33;;
3997;SDS011;61314;53.444;9.902;2023-08-07T08:04:31;13.63;;;5.13;;
3997;SDS011;61314;53.444;9.902;2023-08-07T08:06:58;15.60;;;4.50;;
3997;SDS011;61314;53.444;9.902;2023-08-07T08:09:25;12.03;;;4.30;;
3997;SDS011;61314;53.444;9.902;2023-08-07T08:11:53;22.17;;;4.53;;
3997;SDS011;61314;53.444;9.902;2023-08-07T08:14:21;14.93;;;4.87;;
3997;SDS011;61314;53.444;9.902;2023-08-07T08:16:48;13.60;;;5.40;;
3997;SDS011;61314;53.444;9.902;2023-08-07T08:19:16;21.23;;;5.97;;
3997;SDS011;61314;53.444;9.902;2023-08-07T08:21:43;15.97;;;5.50;;
3997;SDS011;61314;53.444;9.902;2023-08-07T08:24:10;14.80;;;4.10;;
3997;SDS011;61314;53.444;9.902;2023-08-07T08:26:37;12.87;;;4.67;;
3997;SDS011;61314;53.444;9.902;2023-08-07T08:29:05;17.83;;;4.30;;
3997;SDS011;61314;53.444;9.902;2023-08-07T08:31:34;10.30;;;3.80;;
3997;SDS011;61314;53.444;9.902;2023-08-07T08:34:01;21.70;;;4.97;;
3997;SDS011;61314;53.444;9.902;2023-08-07T08:36:29;16.07;;;6.40;;
3997;SDS011;61314;53.444;9.902;2023-08-07T08:38:57;23.63;;;5.60;;
3997;SDS011;61314;53.444;9.902;2023-08-07T08:41:24;22.13;;;4.60;;
3997;SDS011;61314;53.444;9.902;2023-08-07T08:43:52;13.83;;;5.70;;
3997;SDS011;61314;53.444;9.902;2023-08-07T08:46:20;20.80;;;4.93;;
3997;SDS011;61314;53.444;9.902;2023-08-07T08:48:50;19.10;;;6.27;;
3997;SDS011;61314;53.444;9.902;2023-08-07T08:51:17;11.93;;;4.73;;
3997;SDS011;61314;53.444;9.902;2023-08-07T08:53:48;16.70;;;4.87;;
3997;SDS011;61314;53.444;9.902;2023-08-07T08:56:15;12.10;;;3.70;;
3997;SDS011;61314;53.444;9.902;2023-08-07T08:58:43;14.27;;;4.80;;
3997;SDS011;61314;53.444;9.902;2023-08-07T09:01:10;15.13;;;4.70;;
3997;SDS011;61314;53.444;9.902;2023-08-07T09:03:38;15.63;;;4.03;;
3997;SDS011;61314;53.444;9.902;2023-08-07T09:06:05;11.33;;;4.10;;
3997;SDS011;61314;53.444;9.902;2023-08-07T09:08:33;12.67;;;3.87;;
3997;SDS011;61314;53.444;9.902;2023-08-07T09:11:01;16.80;;;3.60;;
3997;SDS011;61314;53.444;9.902;2023-08-07T09:13:29;15.70;;;3.90;;
3997;SDS011;61314;53.444;9.902;2023-08-07T09:16:00;14.13;;;4.27;;
3997;SDS011;61314;53.444;9.902;2023-08-07T09:18:28;9.60;;;3.00;;
3997;SDS011;61314;53.444;9.902;2023-08-07T09:20:56;11.30;;;4.23;;
3997;SDS011;61314;53.444;9.902;2023-08-07T09:23:26;12.73;;;3.20;;
3997;SDS011;61314;53.444;9.902;2023-08-07T09:26:02;20.73;;;3.90;;
3997;SDS011;61314;53.444;9.902;2023-08-07T09:28:30;12.73;;;3.40;;
3997;SDS011;61314;53.444;9.902;2023-08-07T09:30:58;13.40;;;4.50;;
3997;SDS011;61314;53.444;9.902;2023-08-07T09:33:28;14.13;;;3.80;;
3997;SDS011;61314;53.444;9.902;2023-08-07T09:35:59;15.83;;;3.60;;
3997;SDS011;61314;53.444;9.902;2023-08-07T09:38:30;11.37;;;3.23;;
3997;SDS011;61314;53.444;9.902;2023-08-07T09:41:00;10.00;;;2.80;;
3997;SDS011;61314;53.444;9.902;2023-08-07T09:43:33;12.73;;;3.37;;
3997;SDS011;61314;53.444;9.902;2023-08-07T09:46:04;9.63;;;4.07;;
3997;SDS011;61314;53.444;9.902;2023-08-07T09:48:31;17.37;;;4.10;;
3997;SDS011;61314;53.444;9.902;2023-08-07T09:51:01;11.27;;;3.70;;
3997;SDS011;61314;53.444;9.902;2023-08-07T09:53:29;10.00;;;3.13;;
3997;SDS011;61314;53.444;9.902;2023-08-07T09:55:56;9.93;;;2.90;;
3997;SDS011;61314;53.444;9.902;2023-08-07T09:58:24;8.60;;;3.93;;
3997;SDS011;61314;53.444;9.902;2023-08-07T10:00:51;10.80;;;5.20;;
3997;SDS011;61314;53.444;9.902;2023-08-07T10:03:25;17.70;;;5.00;;
3997;SDS011;61314;53.444;9.902;2023-08-07T10:05:53;13.20;;;3.07;;
3997;SDS011;61314;53.444;9.902;2023-08-07T10:08:21;17.30;;;3.57;;
3997;SDS011;61314;53.444;9.902;2023-08-07T10:10:48;9.07;;;2.57;;
3997;SDS011;61314;53.444;9.902;2023-08-07T10:13:15;10.00;;;3.37;;
3997;SDS011;61314;53.444;9.902;2023-08-07T10:15:45;9.43;;;3.80;;
3997;SDS011;61314;53.444;9.902;2023-08-07T10:18:12;9.47;;;3.33;;
3997;SDS011;61314;53.444;9.902;2023-08-07T10:20:39;7.97;;;2.70;;
3997;SDS011;61314;53.444;9.902;2023-08-07T10:23:09;14.53;;;3.73;;
3997;SDS011;61314;53.444;9.902;2023-08-07T10:25:39;10.90;;;3.73;;
3997;SDS011;61314;53.444;9.902;2023-08-07T10:28:08;14.83;;;3.67;;
3997;SDS011;61314;53.444;9.902;2023-08-07T10:30:36;13.60;;;4.00;;
3997;SDS011;61314;53.444;9.902;2023-08-07T10:33:04;7.80;;;3.67;;
3997;SDS011;61314;53.444;9.902;2023-08-07T10:35:32;18.40;;;3.30;;
3997;SDS011;61314;53.444;9.902;2023-08-07T10:38:06;13.70;;;3.30;;
3997;SDS011;61314;53.444;9.902;2023-08-07T10:40:34;11.17;;;3.70;;
3997;SDS011;61314;53.444;9.902;2023-08-07T10:43:21;19.13;;;3.73;;
3997;SDS011;61314;53.444;9.902;2023-08-07T10:45:50;10.10;;;3.73;;
3997;SDS011;61314;53.444;9.902;2023-08-07T10:48:17;15.27;;;3.03;;
3997;SDS011;61314;53.444;9.902;2023-08-07T10:50:55;7.37;;;2.70;;
3997;SDS011;61314;53.444;9.902;2023-08-07T10:56:03;12.23;;;3.80;;
3997;SDS011;61314;53.444;9.902;2023-08-07T10:58:32;7.97;;;3.20;;
3997;SDS011;61314;53.444;9.902;2023-08-07T11:01:49;12.00;;;3.83;;
3997;SDS011;61314;53.444;9.902;2023-08-07T11:03:51;11.87;;;3.73;;
3997;SDS011;61314;53.444;9.902;2023-08-07T11:06:21;8.50;;;3.00;;
3997;SDS011;61314;53.444;9.902;2023-08-07T11:08:49;9.20;;;3.10;;
3997;SDS011;61314;53.444;9.902;2023-08-07T11:11:16;12.43;;;4.50;;
3997;SDS011;61314;53.444;9.902;2023-08-07T11:13:43;12.27;;;3.23;;
3997;SDS011;61314;53.444;9.902;2023-08-07T11:16:11;11.70;;;4.53;;
3997;SDS011;61314;53.444;9.902;2023-08-07T11:18:38;6.23;;;2.77;;
3997;SDS011;61314;53.444;9.902;2023-08-07T11:21:09;15.30;;;3.17;;
3997;SDS011;61314;53.444;9.902;2023-08-07T11:23:40;10.97;;;3.03;;
3997;SDS011;61314;53.444;9.902;2023-08-07T11:26:07;14.87;;;2.70;;
3997;SDS011;61314;53.444;9.902;2023-08-07T11:28:35;8.90;;;2.23;;
3997;SDS011;61314;53.444;9.902;2023-08-07T11:31:02;7.80;;;2.90;;
3997;SDS011;61314;53.444;9.902;2023-08-07T11:33:29;10.50;;;3.17;;
3997;SDS011;61314;53.444;9.902;2023-08-07T11:35:56;14.83;;;3.10;;
3997;SDS011;61314;53.444;9.902;2023-08-07T11:38:31;13.30;;;3.30;;
3997;SDS011;61314;53.444;9.902;2023-08-07T11:40:59;7.00;;;2.67;;
3997;SDS011;61314;53.444;9.902;2023-08-07T11:43:26;4.40;;;2.47;;
3997;SDS011;61314;53.444;9.902;2023-08-07T11:45:54;5.80;;;2.00;;
3997;SDS011;61314;53.444;9.902;2023-08-07T11:48:23;6.60;;;2.20;;
3997;SDS011;61314;53.444;9.902;2023-08-07T11:50:51;9.03;;;2.33;;
3997;SDS011;61314;53.444;9.902;2023-08-07T11:53:19;6.57;;;2.53;;
3997;SDS011;61314;53.444;9.902;2023-08-07T11:55:47;6.43;;;2.50;;
3997;SDS011;61314;53.444;9.902;2023-08-07T11:58:14;9.17;;;3.07;;
3997;SDS011;61314;53.444;9.902;2023-08-07T12:00:43;14.40;;;2.83;;
3997;SDS011;61314;53.444;9.902;2023-08-07T12:06:10;17.63;;;3.50;;
3997;SDS011;61314;53.444;9.902;2023-08-07T12:08:38;9.70;;;2.27;;
3997;SDS011;61314;53.444;9.902;2023-08-07T12:11:07;8.77;;;3.10;;
3997;SDS011;61314;53.444;9.902;2023-08-07T12:13:38;14.30;;;3.07;;
3997;SDS011;61314;53.444;9.902;2023-08-07T12:16:06;5.83;;;2.83;;
3997;SDS011;61314;53.444;9.902;2023-08-07T12:18:34;15.47;;;3.57;;
3997;SDS011;61314;53.444;9.902;2023-08-07T12:21:04;10.47;;;2.80;;
3997;SDS011;61314;53.444;9.902;2023-08-07T12:23:33;11.53;;;2.73;;
3997;SDS011;61314;53.444;9.902;2023-08-07T12:26:00;7.93;;;2.90;;
3997;SDS011;61314;53.444;9.902;2023-08-07T12:28:27;13.53;;;3.73;;
3997;SDS011;61314;53.444;9.902;2023-08-07T12:30:56;13.07;;;3.93;;
3997;SDS011;61314;53.444;9.902;2023-08-07T12:33:23;10.90;;;2.63;;
3997;SDS011;61314;53.444;9.902;2023-08-07T12:35:50;9.93;;;3.10;;
3997;SDS011;61314;53.444;9.902;2023-08-07T12:38:19;11.60;;;3.47;;
3997;SDS011;61314;53.444;9.902;2023-08-07T12:40:46;13.37;;;3.57;;
3997;SDS011;61314;53.444;9.902;2023-08-07T12:43:13;13.70;;;3.80;;
3997;SDS011;61314;53.444;9.902;2023-08-07T12:45:40;8.33;;;3.40;;
3997;SDS011;61314;53.444;9.902;2023-08-07T12:48:10;8.50;;;3.50;;
3997;SDS011;61314;53.444;9.902;2023-08-07T12:50:38;11.47;;;3.27;;
3997;SDS011;61314;53.444;9.902;2023-08-07T12:53:06;8.70;;;2.80;;
3997;SDS011;61314;53.444;9.902;2023-08-07T12:55:33;7.40;;;2.87;;
3997;SDS011;61314;53.444;9.902;2023-08-07T12:58:00;4.47;;;2.80;;
3997;SDS011;61314;53.444;9.902;2023-08-07T13:00:27;14.83;;;3.63;;
3997;SDS011;61314;53.444;9.902;2023-08-07T13:02:54;6.10;;;3.47;;
3997;SDS011;61314;53.444;9.902;2023-08-07T13:05:22;9.20;;;3.20;;
3997;SDS011;61314;53.444;9.902;2023-08-07T13:07:49;7.10;;;3.90;;
3997;SDS011;61314;53.444;9.902;2023-08-07T13:10:19;10.77;;;3.40;;
3997;SDS011;61314;53.444;9.902;2023-08-07T13:12:48;6.63;;;2.70;;
3997;SDS011;61314;53.444;9.902;2023-08-07T13:15:16;9.77;;;3.27;;
3997;SDS011;61314;53.444;9.902;2023-08-07T13:17:43;6.23;;;2.70;;
3997;SDS011;61314;53.444;9.902;2023-08-07T13:20:12;11.63;;;3.60;;
3997;SDS011;61314;53.444;9.902;2023-08-07T13:22:40;6.93;;;2.93;;
3997;SDS011;61314;53.444;9.902;2023-08-07T13:25:08;9.43;;;3.80;;
3997;SDS011;61314;53.444;9.902;2023-08-07T13:27:36;11.03;;;3.50;;
3997;SDS011;61314;53.444;9.902;2023-08-07T13:30:04;6.23;;;2.80;;
3997;SDS011;61314;53.444;9.902;2023-08-07T13:32:32;8.33;;;3.00;;
3997;SDS011;61314;53.444;9.902;2023-08-07T13:34:59;7.70;;;3.10;;
3997;SDS011;61314;53.444;9.902;2023-08-07T13:37:26;15.93;;;3.87;;
3997;SDS011;61314;53.444;9.902;2023-08-07T13:39:53;8.80;;;4.03;;
3997;SDS011;61314;53.444;9.902;2023-08-07T13:42:24;14.53;;;3.40;;
3997;SDS011;61314;53.444;9.902;2023-08-07T13:44:54;15.33;;;3.50;;
3997;SDS011;61314;53.444;9.902;2023-08-07T13:47:21;13.57;;;4.50;;
3997;SDS011;61314;53.444;9.902;2023-08-07T13:49:50;6.37;;;3.30;;
3997;SDS011;61314;53.444;9.902;2023-08-07T13:52:17;14.70;;;4.30;;
3997;SDS011;61314;53.444;9.902;2023-08-07T13:54:44;9.87;;;2.97;;
3997;SDS011;61314;53.444;9.902;2023-08-07T13:57:11;11.63;;;3.90;;
3997;SDS011;61314;53.444;9.902;2023-08-07T13:59:39;7.27;;;3.97;;
3997;SDS011;61314;53.444;9.902;2023-08-07T14:02:06;9.10;;;3.70;;
3997;SDS011;61314;53.444;9.902;2023-08-07T14:04:33;15.67;;;4.23;;
3997;SDS011;61314;53.444;9.902;2023-08-07T14:07:00;17.33;;;3.80;;
3997;SDS011;61314;53.444;9.902;2023-08-07T14:09:27;14.60;;;4.50;;
3997;SDS011;61314;53.444;9.902;2023-08-07T14:11:54;9.40;;;3.90;;
3997;SDS011;61314;53.444;9.902;2023-08-07T14:14:23;11.97;;;4.20;;
3997;SDS011;61314;53.444;9.902;2023-08-07T14:16:50;9.10;;;3.23;;
3997;SDS011;61314;53.444;9.902;2023-08-07T14:19:17;4.27;;;2.80;;
3997;SDS011;61314;53.444;9.902;2023-08-07T14:21:44;12.17;;;2.83;;
3997;SDS011;61314;53.444;9.902;2023-08-07T14:24:12;10.83;;;3.10;;
3997;SDS011;61314;53.444;9.902;2023-08-07T14:26:39;12.07;;;2.80;;
3997;SDS011;61314;53.444;9.902;2023-08-07T14:29:06;11.33;;;2.87;;
3997;SDS011;61314;53.444;9.902;2023-08-07T14:31:33;6.27;;;2.43;;
3997;SDS011;61314;53.444;9.902;2023-08-07T14:34:00;3.47;;;2.70;;
3997;SDS011;61314;53.444;9.902;2023-08-07T14:36:27;12.87;;;2.83;;
3997;SDS011;61314;53.444;9.902;2023-08-07T14:38:54;9.20;;;3.77;;
3997;SDS011;61314;53.444;9.902;2023-08-07T14:41:21;8.07;;;3.43;;
3997;SDS011;61314;53.444;9.902;2023-08-07T14:43:48;9.87;;;4.07;;
3997;SDS011;61314;53.444;9.902;2023-08-07T14:46:16;9.73;;;3.80;;
3997;SDS011;61314;53.444;9.902;2023-08-07T14:48:44;4.63;;;2.73;;
3997;SDS011;61314;53.444;9.902;2023-08-07T14:51:13;9.40;;;3.70;;
3997;SDS011;61314;53.444;9.902;2023-08-07T14:53:40;13.63;;;3.33;;
3997;SDS011;61314;53.444;9.902;2023-08-07T14:56:07;7.03;;;2.93;;
3997;SDS011;61314;53.444;9.902;2023-08-07T14:58:34;7.87;;;2.43;;
3997;SDS011;61314;53.444;9.902;2023-08-07T15:01:01;9.83;;;3.60;;
3997;SDS011;61314;53.444;9.902;2023-08-07T15:03:28;5.60;;;2.53;;
3997;SDS011;61314;53.444;9.902;2023-08-07T15:05:56;9.20;;;3.40;;
3997;SDS011;61314;53.444;9.902;2023-08-07T15:08:24;12.47;;;4.00;;